sensor_id;sensor_type;location;lat;lon;timestamp;temperature;humidity
6672;DHT22;3372;48.690;12.362;2023-03-30T00:00:11;10.70;55.90
6672;DHT22;3372;48.690;12.362;2023-03-30T00:02:48;10.70;56.40
6672;DHT22;3372;48.690;12.362;2023-03-30T00:05:15;10.60;56.40
6672;DHT22;3372;48.690;12.362;2023-03-30T00:07:42;10.60;57.40
6672;DHT22;3372;48.690;12.362;2023-03-30T00:10:11;10.60;57.80
6672;DHT22;3372;48.690;12.362;2023-03-30T00:12:39;10.50;57.90
6672;DHT22;3372;48.690;12.362;2023-03-30T00:15:07;10.50;59.10
6672;DHT22;3372;48.690;12.362;2023-03-30T00:17:34;10.50;59.60
6672;DHT22;3372;48.690;12.362;2023-03-30T00:20:00;10.50;59.80
6672;DHT22;3372;48.690;12.362;2023-03-30T00:22:36;10.50;59.80
6672;DHT22;3372;48.690;12.362;2023-03-30T00:25:02;10.50;59.80
6672;DHT22;3372;48.690;12.362;2023-03-30T00:27:27;10.60;60.40
6672;DHT22;3372;48.690;12.362;2023-03-30T00:29:53;10.70;59.60
6672;DHT22;3372;48.690;12.362;2023-03-30T00:32:19;10.70;59.40
6672;DHT22;3372;48.690;12.362;2023-03-30T00:34:44;10.70;59.30
6672;DHT22;3372;48.690;12.362;2023-03-30T00:37:10;10.70;60.10
6672;DHT22;3372;48.690;12.362;2023-03-30T00:39:36;10.70;59.00
6672;DHT22;3372;48.690;12.362;2023-03-30T00:42:01;10.60;60.20
6672;DHT22;3372;48.690;12.362;2023-03-30T00:47:30;10.70;59.50
6672;DHT22;3372;48.690;12.362;2023-03-30T00:49:56;10.60;60.20
6672;DHT22;3372;48.690;12.362;2023-03-30T00:52:23;10.60;60.10
6672;DHT22;3372;48.690;12.362;2023-03-30T00:54:50;10.60;60.00
6672;DHT22;3372;48.690;12.362;2023-03-30T00:57:18;10.60;58.90
6672;DHT22;3372;48.690;12.362;2023-03-30T00:59:46;10.60;58.90
6672;DHT22;3372;48.690;12.362;2023-03-30T01:02:14;10.70;58.70
6672;DHT22;3372;48.690;12.362;2023-03-30T01:04:40;10.70;58.70
6672;DHT22;3372;48.690;12.362;2023-03-30T01:07:06;10.70;57.90
6672;DHT22;3372;48.690;12.362;2023-03-30T01:09:39;10.80;58.60
6672;DHT22;3372;48.690;12.362;2023-03-30T01:12:06;10.80;58.20
6672;DHT22;3372;48.690;12.362;2023-03-30T01:14:31;10.80;57.50
6672;DHT22;3372;48.690;12.362;2023-03-30T01:17:15;10.80;57.90
6672;DHT22;3372;48.690;12.362;2023-03-30T01:34:12;10.80;57.40
6672;DHT22;3372;48.690;12.362;2023-03-30T01:36:55;10.60;60.70
6672;DHT22;3372;48.690;12.362;2023-03-30T01:39:47;10.60;58.80
6672;DHT22;3372;48.690;12.362;2023-03-30T01:42:21;10.70;59.00
6672;DHT22;3372;48.690;12.362;2023-03-30T01:50:39;10.70;58.20
6672;DHT22;3372;48.690;12.362;2023-03-30T01:53:45;10.70;57.90
6672;DHT22;3372;48.690;12.362;2023-03-30T01:56:09;10.80;57.90
6672;DHT22;3372;48.690;12.362;2023-03-30T01:58:43;10.70;57.90
6672;DHT22;3372;48.690;12.362;2023-03-30T02:01:12;10.70;57.70
6672;DHT22;3372;48.690;12.362;2023-03-30T02:03:42;10.70;58.80
6672;DHT22;3372;48.690;12.362;2023-03-30T02:06:36;10.70;57.60
6672;DHT22;3372;48.690;12.362;2023-03-30T02:09:06;10.70;58.50
6672;DHT22;3372;48.690;12.362;2023-03-30T02:11:33;10.60;59.20
6672;DHT22;3372;48.690;12.362;2023-03-30T02:14:01;10.50;60.70
6672;DHT22;3372;48.690;12.362;2023-03-30T02:16:33;10.50;59.70
6672;DHT22;3372;48.690;12.362;2023-03-30T02:19:00;10.50;59.60
6672;DHT22;3372;48.690;12.362;2023-03-30T02:21:26;10.40;60.20
6672;DHT22;3372;48.690;12.362;2023-03-30T02:23:54;10.50;59.70
6672;DHT22;3372;48.690;12.362;2023-03-30T02:26:21;10.50;59.60
6672;DHT22;3372;48.690;12.362;2023-03-30T02:28:48;10.50;60.10
6672;DHT22;3372;48.690;12.362;2023-03-30T02:31:15;10.50;59.50
6672;DHT22;3372;48.690;12.362;2023-03-30T02:33:57;10.60;58.60
6672;DHT22;3372;48.690;12.362;2023-03-30T02:45:21;10.50;60.60
6672;DHT22;3372;48.690;12.362;2023-03-30T02:48:32;10.40;60.60
6672;DHT22;3372;48.690;12.362;2023-03-30T02:50:49;10.50;61.60
6672;DHT22;3372;48.690;12.362;2023-03-30T02:54:25;10.40;62.10
6672;DHT22;3372;48.690;12.362;2023-03-30T02:59:12;10.30;64.20
6672;DHT22;3372;48.690;12.362;2023-03-30T03:01:46;10.40;64.80
6672;DHT22;3372;48.690;12.362;2023-03-30T03:04:16;10.30;65.80
6672;DHT22;3372;48.690;12.362;2023-03-30T03:06:43;10.30;66.20
6672;DHT22;3372;48.690;12.362;2023-03-30T03:09:09;10.30;68.10
6672;DHT22;3372;48.690;12.362;2023-03-30T03:11:35;10.30;69.40
6672;DHT22;3372;48.690;12.362;2023-03-30T03:14:00;10.40;69.00
6672;DHT22;3372;48.690;12.362;2023-03-30T03:16:26;10.40;69.30
6672;DHT22;3372;48.690;12.362;2023-03-30T03:18:52;10.40;71.20
6672;DHT22;3372;48.690;12.362;2023-03-30T03:21:18;10.30;71.10
6672;DHT22;3372;48.690;12.362;2023-03-30T03:23:43;10.30;72.30
6672;DHT22;3372;48.690;12.362;2023-03-30T03:26:12;10.30;73.20
6672;DHT22;3372;48.690;12.362;2023-03-30T03:28:38;10.30;74.50
6672;DHT22;3372;48.690;12.362;2023-03-30T03:31:04;10.30;74.90
6672;DHT22;3372;48.690;12.362;2023-03-30T03:33:30;10.30;77.20
6672;DHT22;3372;48.690;12.362;2023-03-30T03:35:57;10.30;78.20
6672;DHT22;3372;48.690;12.362;2023-03-30T03:38:25;10.30;78.00
6672;DHT22;3372;48.690;12.362;2023-03-30T03:40:53;10.30;78.40
6672;DHT22;3372;48.690;12.362;2023-03-30T03:43:19;10.30;79.60
6672;DHT22;3372;48.690;12.362;2023-03-30T03:45:46;10.30;79.90
6672;DHT22;3372;48.690;12.362;2023-03-30T03:48:13;10.40;78.90
6672;DHT22;3372;48.690;12.362;2023-03-30T03:50:39;10.40;78.40
6672;DHT22;3372;48.690;12.362;2023-03-30T03:53:06;10.50;77.00
6672;DHT22;3372;48.690;12.362;2023-03-30T03:55:32;10.50;77.30
6672;DHT22;3372;48.690;12.362;2023-03-30T03:58:00;10.60;75.70
6672;DHT22;3372;48.690;12.362;2023-03-30T04:00:25;10.60;75.60
6672;DHT22;3372;48.690;12.362;2023-03-30T04:02:51;10.60;75.60
6672;DHT22;3372;48.690;12.362;2023-03-30T04:05:17;10.60;75.60
6672;DHT22;3372;48.690;12.362;2023-03-30T04:07:43;10.70;75.40
6672;DHT22;3372;48.690;12.362;2023-03-30T04:10:11;10.60;75.30
6672;DHT22;3372;48.690;12.362;2023-03-30T04:12:37;10.60;76.20
6672;DHT22;3372;48.690;12.362;2023-03-30T04:15:04;10.60;76.10
6672;DHT22;3372;48.690;12.362;2023-03-30T04:17:30;10.60;76.90
6672;DHT22;3372;48.690;12.362;2023-03-30T04:19:58;10.70;77.10
6672;DHT22;3372;48.690;12.362;2023-03-30T04:22:30;10.70;77.60
6672;DHT22;3372;48.690;12.362;2023-03-30T04:24:58;10.70;78.70
6672;DHT22;3372;48.690;12.362;2023-03-30T04:27:24;10.70;79.40
6672;DHT22;3372;48.690;12.362;2023-03-30T04:29:53;10.80;79.80
6672;DHT22;3372;48.690;12.362;2023-03-30T04:32:22;10.70;81.70
6672;DHT22;3372;48.690;12.362;2023-03-30T04:34:48;10.80;81.20
6672;DHT22;3372;48.690;12.362;2023-03-30T04:37:14;10.70;82.30
6672;DHT22;3372;48.690;12.362;2023-03-30T04:39:45;10.80;82.50
6672;DHT22;3372;48.690;12.362;2023-03-30T04:42:11;10.80;84.50
6672;DHT22;3372;48.690;12.362;2023-03-30T04:44:41;10.80;88.80
6672;DHT22;3372;48.690;12.362;2023-03-30T04:47:06;10.90;90.20
6672;DHT22;3372;48.690;12.362;2023-03-30T04:49:32;11.00;89.20
6672;DHT22;3372;48.690;12.362;2023-03-30T04:51:58;11.10;89.00
6672;DHT22;3372;48.690;12.362;2023-03-30T04:54:24;11.10;89.10
6672;DHT22;3372;48.690;12.362;2023-03-30T04:56:49;11.30;87.90
6672;DHT22;3372;48.690;12.362;2023-03-30T04:59:15;11.30;87.90
6672;DHT22;3372;48.690;12.362;2023-03-30T05:01:40;11.30;89.20
6672;DHT22;3372;48.690;12.362;2023-03-30T05:04:06;11.40;88.40
6672;DHT22;3372;48.690;12.362;2023-03-30T05:06:32;11.40;87.70
6672;DHT22;3372;48.690;12.362;2023-03-30T05:08:57;11.40;87.50
6672;DHT22;3372;48.690;12.362;2023-03-30T05:11:23;11.50;86.80
6672;DHT22;3372;48.690;12.362;2023-03-30T05:13:52;11.50;86.50
6672;DHT22;3372;48.690;12.362;2023-03-30T05:16:19;11.50;87.80
6672;DHT22;3372;48.690;12.362;2023-03-30T05:18:45;11.40;86.80
6672;DHT22;3372;48.690;12.362;2023-03-30T05:21:11;11.40;86.80
6672;DHT22;3372;48.690;12.362;2023-03-30T05:23:36;11.50;86.60
6672;DHT22;3372;48.690;12.362;2023-03-30T05:26:04;11.50;87.20
6672;DHT22;3372;48.690;12.362;2023-03-30T05:28:32;11.50;88.30
6672;DHT22;3372;48.690;12.362;2023-03-30T05:30:57;11.50;90.00
6672;DHT22;3372;48.690;12.362;2023-03-30T05:33:23;11.50;90.10
6672;DHT22;3372;48.690;12.362;2023-03-30T05:35:50;11.50;91.20
6672;DHT22;3372;48.690;12.362;2023-03-30T05:38:15;11.60;91.30
6672;DHT22;3372;48.690;12.362;2023-03-30T05:40:41;11.60;92.20
6672;DHT22;3372;48.690;12.362;2023-03-30T05:43:07;11.70;93.00
6672;DHT22;3372;48.690;12.362;2023-03-30T05:45:33;11.70;93.60
6672;DHT22;3372;48.690;12.362;2023-03-30T05:47:59;11.70;93.60
6672;DHT22;3372;48.690;12.362;2023-03-30T05:50:25;11.70;95.10
6672;DHT22;3372;48.690;12.362;2023-03-30T05:52:51;11.70;96.00
6672;DHT22;3372;48.690;12.362;2023-03-30T05:55:17;11.70;96.70
6672;DHT22;3372;48.690;12.362;2023-03-30T05:57:42;11.70;99.10
6672;DHT22;3372;48.690;12.362;2023-03-30T06:00:10;11.70;99.90
6672;DHT22;3372;48.690;12.362;2023-03-30T06:02:38;11.80;99.90
6672;DHT22;3372;48.690;12.362;2023-03-30T06:05:04;11.80;99.90
6672;DHT22;3372;48.690;12.362;2023-03-30T06:07:30;11.80;99.90
6672;DHT22;3372;48.690;12.362;2023-03-30T06:09:55;11.80;99.90
6672;DHT22;3372;48.690;12.362;2023-03-30T06:12:24;11.90;99.90
6672;DHT22;3372;48.690;12.362;2023-03-30T06:14:50;11.90;99.90
6672;DHT22;3372;48.690;12.362;2023-03-30T06:17:15;11.90;99.90
6672;DHT22;3372;48.690;12.362;2023-03-30T06:19:41;12.00;99.90
6672;DHT22;3372;48.690;12.362;2023-03-30T06:22:07;12.00;99.90
6672;DHT22;3372;48.690;12.362;2023-03-30T06:24:33;12.10;99.90
6672;DHT22;3372;48.690;12.362;2023-03-30T06:26:59;12.10;99.90
6672;DHT22;3372;48.690;12.362;2023-03-30T06:29:27;12.10;99.90
6672;DHT22;3372;48.690;12.362;2023-03-30T06:31:52;12.10;99.90
6672;DHT22;3372;48.690;12.362;2023-03-30T06:34:18;12.10;99.90
6672;DHT22;3372;48.690;12.362;2023-03-30T06:36:45;12.10;99.90
6672;DHT22;3372;48.690;12.362;2023-03-30T06:39:11;12.20;99.90
6672;DHT22;3372;48.690;12.362;2023-03-30T06:41:37;12.30;99.90
6672;DHT22;3372;48.690;12.362;2023-03-30T06:44:02;12.20;99.90
6672;DHT22;3372;48.690;12.362;2023-03-30T06:46:28;12.30;99.90
6672;DHT22;3372;48.690;12.362;2023-03-30T06:48:54;12.30;99.90
6672;DHT22;3372;48.690;12.362;2023-03-30T06:51:19;12.40;99.90
6672;DHT22;3372;48.690;12.362;2023-03-30T06:53:45;12.50;99.90
6672;DHT22;3372;48.690;12.362;2023-03-30T06:56:11;12.50;99.90
6672;DHT22;3372;48.690;12.362;2023-03-30T06:58:37;12.50;99.90
6672;DHT22;3372;48.690;12.362;2023-03-30T07:01:10;12.60;99.90
6672;DHT22;3372;48.690;12.362;2023-03-30T07:03:36;12.60;99.90
6672;DHT22;3372;48.690;12.362;2023-03-30T07:06:02;12.60;99.90
6672;DHT22;3372;48.690;12.362;2023-03-30T07:08:28;12.60;99.90
6672;DHT22;3372;48.690;12.362;2023-03-30T07:10:54;12.50;99.90
6672;DHT22;3372;48.690;12.362;2023-03-30T07:13:20;12.60;99.90
6672;DHT22;3372;48.690;12.362;2023-03-30T07:15:46;12.60;99.90
6672;DHT22;3372;48.690;12.362;2023-03-30T07:18:11;12.70;99.90
6672;DHT22;3372;48.690;12.362;2023-03-30T07:20:37;12.70;99.90
6672;DHT22;3372;48.690;12.362;2023-03-30T07:23:03;12.80;99.90
6672;DHT22;3372;48.690;12.362;2023-03-30T07:25:28;12.70;99.90
6672;DHT22;3372;48.690;12.362;2023-03-30T07:27:54;12.80;99.90
6672;DHT22;3372;48.690;12.362;2023-03-30T07:30:20;12.80;99.90
6672;DHT22;3372;48.690;12.362;2023-03-30T07:32:47;12.90;99.90
6672;DHT22;3372;48.690;12.362;2023-03-30T07:35:14;13.00;99.90
6672;DHT22;3372;48.690;12.362;2023-03-30T07:37:41;13.00;99.90
6672;DHT22;3372;48.690;12.362;2023-03-30T07:40:07;13.00;99.90
6672;DHT22;3372;48.690;12.362;2023-03-30T07:42:33;13.00;99.90
6672;DHT22;3372;48.690;12.362;2023-03-30T07:44:59;13.00;99.90
6672;DHT22;3372;48.690;12.362;2023-03-30T07:47:24;13.00;99.90
6672;DHT22;3372;48.690;12.362;2023-03-30T07:49:51;13.10;99.90
6672;DHT22;3372;48.690;12.362;2023-03-30T07:52:16;13.10;99.90
6672;DHT22;3372;48.690;12.362;2023-03-30T07:54:42;13.20;99.90
6672;DHT22;3372;48.690;12.362;2023-03-30T07:57:09;13.30;99.90
6672;DHT22;3372;48.690;12.362;2023-03-30T07:59:36;13.40;99.90
6672;DHT22;3372;48.690;12.362;2023-03-30T08:02:01;13.40;99.90
6672;DHT22;3372;48.690;12.362;2023-03-30T08:04:29;13.40;99.90
6672;DHT22;3372;48.690;12.362;2023-03-30T08:06:55;13.50;99.90
6672;DHT22;3372;48.690;12.362;2023-03-30T08:09:21;13.60;99.90
6672;DHT22;3372;48.690;12.362;2023-03-30T08:11:47;13.70;99.90
6672;DHT22;3372;48.690;12.362;2023-03-30T08:14:13;13.80;99.90
6672;DHT22;3372;48.690;12.362;2023-03-30T08:16:38;13.80;99.90
6672;DHT22;3372;48.690;12.362;2023-03-30T08:19:04;13.80;99.90
6672;DHT22;3372;48.690;12.362;2023-03-30T08:21:29;13.70;99.90
6672;DHT22;3372;48.690;12.362;2023-03-30T08:23:55;13.80;99.90
6672;DHT22;3372;48.690;12.362;2023-03-30T08:26:26;13.80;99.90
6672;DHT22;3372;48.690;12.362;2023-03-30T08:28:55;13.70;99.90
6672;DHT22;3372;48.690;12.362;2023-03-30T08:31:21;13.70;99.90
6672;DHT22;3372;48.690;12.362;2023-03-30T08:33:47;13.70;99.90
6672;DHT22;3372;48.690;12.362;2023-03-30T08:36:14;13.60;99.90
6672;DHT22;3372;48.690;12.362;2023-03-30T08:38:40;13.60;99.90
6672;DHT22;3372;48.690;12.362;2023-03-30T08:43:56;13.50;99.90
6672;DHT22;3372;48.690;12.362;2023-03-30T08:46:22;13.50;99.90
6672;DHT22;3372;48.690;12.362;2023-03-30T08:48:48;13.50;99.90
6672;DHT22;3372;48.690;12.362;2023-03-30T08:51:23;13.50;99.90
6672;DHT22;3372;48.690;12.362;2023-03-30T08:54:02;13.50;99.90
6672;DHT22;3372;48.690;12.362;2023-03-30T08:56:36;13.50;99.90
6672;DHT22;3372;48.690;12.362;2023-03-30T09:02:32;13.50;99.90
6672;DHT22;3372;48.690;12.362;2023-03-30T09:07:38;13.70;99.90
6672;DHT22;3372;48.690;12.362;2023-03-30T09:10:12;13.70;99.90
6672;DHT22;3372;48.690;12.362;2023-03-30T09:12:44;13.80;99.90
6672;DHT22;3372;48.690;12.362;2023-03-30T09:15:17;13.80;99.90
6672;DHT22;3372;48.690;12.362;2023-03-30T09:20:35;13.70;99.90
6672;DHT22;3372;48.690;12.362;2023-03-30T09:23:03;13.70;99.90
6672;DHT22;3372;48.690;12.362;2023-03-30T09:25:49;13.70;99.90
6672;DHT22;3372;48.690;12.362;2023-03-30T09:28:32;13.80;99.90
6672;DHT22;3372;48.690;12.362;2023-03-30T09:31:17;13.70;99.90
6672;DHT22;3372;48.690;12.362;2023-03-30T09:36:52;13.90;99.90
6672;DHT22;3372;48.690;12.362;2023-03-30T09:39:22;14.00;99.90
6672;DHT22;3372;48.690;12.362;2023-03-30T09:44:38;14.10;99.90
6672;DHT22;3372;48.690;12.362;2023-03-30T09:47:26;14.10;99.90
6672;DHT22;3372;48.690;12.362;2023-03-30T09:50:09;14.10;99.90
6672;DHT22;3372;48.690;12.362;2023-03-30T09:52:40;14.20;99.90
6672;DHT22;3372;48.690;12.362;2023-03-30T09:55:35;14.30;99.90
6672;DHT22;3372;48.690;12.362;2023-03-30T09:58:11;14.40;99.90
6672;DHT22;3372;48.690;12.362;2023-03-30T10:00:37;14.50;99.90
6672;DHT22;3372;48.690;12.362;2023-03-30T10:03:12;14.50;99.90
6672;DHT22;3372;48.690;12.362;2023-03-30T10:05:42;14.60;99.90
6672;DHT22;3372;48.690;12.362;2023-03-30T10:08:20;14.60;99.90
6672;DHT22;3372;48.690;12.362;2023-03-30T10:10:53;14.60;99.90
6672;DHT22;3372;48.690;12.362;2023-03-30T10:13:20;14.70;99.90
6672;DHT22;3372;48.690;12.362;2023-03-30T10:15:52;14.70;99.90
6672;DHT22;3372;48.690;12.362;2023-03-30T10:18:27;14.90;99.90
6672;DHT22;3372;48.690;12.362;2023-03-30T10:23:40;14.70;99.90
6672;DHT22;3372;48.690;12.362;2023-03-30T10:26:14;14.60;99.90
6672;DHT22;3372;48.690;12.362;2023-03-30T10:29:09;14.70;99.90
6672;DHT22;3372;48.690;12.362;2023-03-30T10:31:38;14.70;99.90
6672;DHT22;3372;48.690;12.362;2023-03-30T10:34:13;14.70;99.90
6672;DHT22;3372;48.690;12.362;2023-03-30T10:36:39;14.70;99.90
6672;DHT22;3372;48.690;12.362;2023-03-30T10:39:10;14.70;99.90
6672;DHT22;3372;48.690;12.362;2023-03-30T10:41:39;14.80;99.90
6672;DHT22;3372;48.690;12.362;2023-03-30T10:47:16;14.80;99.90
6672;DHT22;3372;48.690;12.362;2023-03-30T10:52:33;15.30;99.90
6672;DHT22;3372;48.690;12.362;2023-03-30T10:55:32;15.50;99.90
6672;DHT22;3372;48.690;12.362;2023-03-30T11:03:19;15.70;99.90
6672;DHT22;3372;48.690;12.362;2023-03-30T11:05:50;15.90;99.90
6672;DHT22;3372;48.690;12.362;2023-03-30T11:08:23;16.00;99.90
6672;DHT22;3372;48.690;12.362;2023-03-30T11:10:55;16.10;99.90
6672;DHT22;3372;48.690;12.362;2023-03-30T11:13:34;16.10;99.90
6672;DHT22;3372;48.690;12.362;2023-03-30T11:16:26;16.10;99.90
6672;DHT22;3372;48.690;12.362;2023-03-30T11:19:02;16.00;99.90
6672;DHT22;3372;48.690;12.362;2023-03-30T11:21:32;15.90;99.90
6672;DHT22;3372;48.690;12.362;2023-03-30T11:24:14;15.90;99.90
6672;DHT22;3372;48.690;12.362;2023-03-30T11:26:50;15.80;99.90
6672;DHT22;3372;48.690;12.362;2023-03-30T11:33:35;15.70;99.90
6672;DHT22;3372;48.690;12.362;2023-03-30T11:35:45;15.60;99.90
6672;DHT22;3372;48.690;12.362;2023-03-30T11:38:28;15.60;99.90
6672;DHT22;3372;48.690;12.362;2023-03-30T11:41:16;15.50;99.90
6672;DHT22;3372;48.690;12.362;2023-03-30T11:43:44;15.50;99.90
6672;DHT22;3372;48.690;12.362;2023-03-30T11:46:25;15.50;99.90
6672;DHT22;3372;48.690;12.362;2023-03-30T12:01:04;15.10;99.90
6672;DHT22;3372;48.690;12.362;2023-03-30T12:03:45;15.10;99.90
6672;DHT22;3372;48.690;12.362;2023-03-30T12:06:17;15.10;99.90
6672;DHT22;3372;48.690;12.362;2023-03-30T12:09:02;15.10;99.90
6672;DHT22;3372;48.690;12.362;2023-03-30T12:14:36;14.90;99.90
6672;DHT22;3372;48.690;12.362;2023-03-30T12:17:23;14.90;99.90
6672;DHT22;3372;48.690;12.362;2023-03-30T12:19:59;14.90;99.90
6672;DHT22;3372;48.690;12.362;2023-03-30T12:22:52;14.70;99.90
6672;DHT22;3372;48.690;12.362;2023-03-30T12:28:23;14.80;99.90
6672;DHT22;3372;48.690;12.362;2023-03-30T12:30:57;14.70;99.90
6672;DHT22;3372;48.690;12.362;2023-03-30T12:33:32;14.70;99.90
6672;DHT22;3372;48.690;12.362;2023-03-30T12:36:03;14.60;99.90
6672;DHT22;3372;48.690;12.362;2023-03-30T12:38:43;14.60;99.90
6672;DHT22;3372;48.690;12.362;2023-03-30T12:41:15;14.60;99.90
6672;DHT22;3372;48.690;12.362;2023-03-30T12:52:12;14.60;99.90
6672;DHT22;3372;48.690;12.362;2023-03-30T13:05:32;14.50;99.90
6672;DHT22;3372;48.690;12.362;2023-03-30T13:08:08;14.50;99.90
6672;DHT22;3372;48.690;12.362;2023-03-30T13:10:41;14.40;99.90
6672;DHT22;3372;48.690;12.362;2023-03-30T13:13:22;14.30;99.90
6672;DHT22;3372;48.690;12.362;2023-03-30T13:16:07;14.60;99.90
6672;DHT22;3372;48.690;12.362;2023-03-30T13:18:59;14.70;99.90
6672;DHT22;3372;48.690;12.362;2023-03-30T13:21:25;14.70;99.90
6672;DHT22;3372;48.690;12.362;2023-03-30T13:24:31;14.80;99.90
6672;DHT22;3372;48.690;12.362;2023-03-30T13:30:03;15.00;99.90
6672;DHT22;3372;48.690;12.362;2023-03-30T13:33:03;14.90;99.90
6672;DHT22;3372;48.690;12.362;2023-03-30T13:35:50;14.90;99.90
6672;DHT22;3372;48.690;12.362;2023-03-30T13:46:53;14.70;99.90
6672;DHT22;3372;48.690;12.362;2023-03-30T13:51:47;14.40;99.90
6672;DHT22;3372;48.690;12.362;2023-03-30T13:54:16;14.30;99.90
6672;DHT22;3372;48.690;12.362;2023-03-30T13:56:47;14.40;99.90
6672;DHT22;3372;48.690;12.362;2023-03-30T13:59:19;14.40;99.90
6672;DHT22;3372;48.690;12.362;2023-03-30T14:01:53;14.40;99.90
6672;DHT22;3372;48.690;12.362;2023-03-30T14:04:19;14.30;99.90
6672;DHT22;3372;48.690;12.362;2023-03-30T14:06:46;14.20;99.90
6672;DHT22;3372;48.690;12.362;2023-03-30T14:09:20;14.20;99.90
6672;DHT22;3372;48.690;12.362;2023-03-30T14:12:00;14.00;99.90
6672;DHT22;3372;48.690;12.362;2023-03-30T14:14:33;14.20;99.90
6672;DHT22;3372;48.690;12.362;2023-03-30T14:17:00;14.00;99.90
6672;DHT22;3372;48.690;12.362;2023-03-30T14:19:28;13.90;99.90
6672;DHT22;3372;48.690;12.362;2023-03-30T14:22:16;13.90;99.90
6672;DHT22;3372;48.690;12.362;2023-03-30T14:24:59;14.10;99.90
6672;DHT22;3372;48.690;12.362;2023-03-30T14:27:31;13.90;99.90
6672;DHT22;3372;48.690;12.362;2023-03-30T14:29:57;14.00;99.90
6672;DHT22;3372;48.690;12.362;2023-03-30T14:32:23;14.00;99.90
6672;DHT22;3372;48.690;12.362;2023-03-30T14:34:52;13.90;99.90
6672;DHT22;3372;48.690;12.362;2023-03-30T14:37:19;14.00;99.90
6672;DHT22;3372;48.690;12.362;2023-03-30T14:39:51;14.10;99.90
6672;DHT22;3372;48.690;12.362;2023-03-30T14:42:24;14.00;99.90
6672;DHT22;3372;48.690;12.362;2023-03-30T14:44:53;14.00;99.90
6672;DHT22;3372;48.690;12.362;2023-03-30T14:47:21;14.00;99.90
6672;DHT22;3372;48.690;12.362;2023-03-30T14:49:50;14.00;99.90
6672;DHT22;3372;48.690;12.362;2023-03-30T14:52:23;13.80;99.90
6672;DHT22;3372;48.690;12.362;2023-03-30T14:54:51;13.80;99.90
6672;DHT22;3372;48.690;12.362;2023-03-30T14:57:20;13.70;99.90
6672;DHT22;3372;48.690;12.362;2023-03-30T14:59:56;13.80;99.90
6672;DHT22;3372;48.690;12.362;2023-03-30T15:02:26;13.80;99.90
6672;DHT22;3372;48.690;12.362;2023-03-30T15:04:52;13.80;99.90
6672;DHT22;3372;48.690;12.362;2023-03-30T15:07:19;13.90;99.90
6672;DHT22;3372;48.690;12.362;2023-03-30T15:09:53;13.90;99.90
6672;DHT22;3372;48.690;12.362;2023-03-30T15:12:32;13.90;99.90
6672;DHT22;3372;48.690;12.362;2023-03-30T15:15:02;14.00;99.90
6672;DHT22;3372;48.690;12.362;2023-03-30T15:17:29;14.00;99.90
6672;DHT22;3372;48.690;12.362;2023-03-30T15:19:58;13.90;99.90
6672;DHT22;3372;48.690;12.362;2023-03-30T15:22:29;13.90;99.90
6672;DHT22;3372;48.690;12.362;2023-03-30T15:24:58;13.80;99.90
6672;DHT22;3372;48.690;12.362;2023-03-30T15:27:25;13.90;99.90
6672;DHT22;3372;48.690;12.362;2023-03-30T15:29:53;13.80;99.90
6672;DHT22;3372;48.690;12.362;2023-03-30T15:32:25;14.00;99.90
6672;DHT22;3372;48.690;12.362;2023-03-30T15:37:31;14.00;99.90
6672;DHT22;3372;48.690;12.362;2023-03-30T15:39:56;14.20;99.90
6672;DHT22;3372;48.690;12.362;2023-03-30T15:42:30;14.30;99.90
6672;DHT22;3372;48.690;12.362;2023-03-30T15:45:08;14.40;99.90
6672;DHT22;3372;48.690;12.362;2023-03-30T15:47:35;14.30;99.90
6672;DHT22;3372;48.690;12.362;2023-03-30T15:50:01;14.20;99.90
6672;DHT22;3372;48.690;12.362;2023-03-30T15:52:34;14.20;99.90
6672;DHT22;3372;48.690;12.362;2023-03-30T15:57:41;14.30;99.90
6672;DHT22;3372;48.690;12.362;2023-03-30T16:00:13;13.90;99.90
6672;DHT22;3372;48.690;12.362;2023-03-30T16:02:49;14.00;99.90
6672;DHT22;3372;48.690;12.362;2023-03-30T16:05:23;14.10;99.90
6672;DHT22;3372;48.690;12.362;2023-03-30T16:07:49;14.20;99.90
6672;DHT22;3372;48.690;12.362;2023-03-30T16:10:17;14.10;99.90
6672;DHT22;3372;48.690;12.362;2023-03-30T16:12:46;13.80;99.90
6672;DHT22;3372;48.690;12.362;2023-03-30T16:15:14;13.90;99.90
6672;DHT22;3372;48.690;12.362;2023-03-30T16:17:40;13.90;99.90
6672;DHT22;3372;48.690;12.362;2023-03-30T16:20:17;14.00;99.90
6672;DHT22;3372;48.690;12.362;2023-03-30T16:22:43;14.10;99.90
6672;DHT22;3372;48.690;12.362;2023-03-30T16:25:12;14.00;99.90
6672;DHT22;3372;48.690;12.362;2023-03-30T16:27:37;14.00;99.90
6672;DHT22;3372;48.690;12.362;2023-03-30T16:30:16;14.00;99.90
6672;DHT22;3372;48.690;12.362;2023-03-30T16:32:43;14.10;99.90
6672;DHT22;3372;48.690;12.362;2023-03-30T16:35:09;14.10;99.90
6672;DHT22;3372;48.690;12.362;2023-03-30T16:37:35;14.10;99.90
6672;DHT22;3372;48.690;12.362;2023-03-30T16:40:01;14.20;99.90
6672;DHT22;3372;48.690;12.362;2023-03-30T16:42:30;14.10;99.90
6672;DHT22;3372;48.690;12.362;2023-03-30T16:44:56;14.10;99.90
6672;DHT22;3372;48.690;12.362;2023-03-30T16:47:21;14.20;99.90
6672;DHT22;3372;48.690;12.362;2023-03-30T16:49:47;14.20;99.90
6672;DHT22;3372;48.690;12.362;2023-03-30T16:52:12;14.10;99.90
6672;DHT22;3372;48.690;12.362;2023-03-30T16:54:38;14.20;99.90
6672;DHT22;3372;48.690;12.362;2023-03-30T16:57:04;14.20;99.90
6672;DHT22;3372;48.690;12.362;2023-03-30T16:59:31;14.10;99.90
6672;DHT22;3372;48.690;12.362;2023-03-30T17:01:58;14.10;99.90
6672;DHT22;3372;48.690;12.362;2023-03-30T17:04:23;14.10;99.90
6672;DHT22;3372;48.690;12.362;2023-03-30T17:06:49;14.10;99.90
6672;DHT22;3372;48.690;12.362;2023-03-30T17:09:17;14.10;99.90
6672;DHT22;3372;48.690;12.362;2023-03-30T17:11:45;14.00;99.90
6672;DHT22;3372;48.690;12.362;2023-03-30T17:14:11;14.00;99.90
6672;DHT22;3372;48.690;12.362;2023-03-30T17:16:37;13.90;99.90
6672;DHT22;3372;48.690;12.362;2023-03-30T17:19:03;13.80;99.90
6672;DHT22;3372;48.690;12.362;2023-03-30T17:21:28;13.70;99.90
6672;DHT22;3372;48.690;12.362;2023-03-30T17:23:54;13.30;99.90
6672;DHT22;3372;48.690;12.362;2023-03-30T17:26:20;13.10;99.90
6672;DHT22;3372;48.690;12.362;2023-03-30T17:28:46;12.90;99.90
6672;DHT22;3372;48.690;12.362;2023-03-30T17:31:17;12.90;99.90
6672;DHT22;3372;48.690;12.362;2023-03-30T17:33:45;12.70;99.90
6672;DHT22;3372;48.690;12.362;2023-03-30T17:36:15;12.30;99.90
6672;DHT22;3372;48.690;12.362;2023-03-30T17:38:41;12.20;99.90
6672;DHT22;3372;48.690;12.362;2023-03-30T17:41:10;12.10;99.90
6672;DHT22;3372;48.690;12.362;2023-03-30T17:43:36;12.20;99.90
6672;DHT22;3372;48.690;12.362;2023-03-30T17:46:02;12.20;99.90
6672;DHT22;3372;48.690;12.362;2023-03-30T17:48:28;12.20;99.90
6672;DHT22;3372;48.690;12.362;2023-03-30T17:50:53;12.30;99.90
6672;DHT22;3372;48.690;12.362;2023-03-30T17:53:20;12.00;99.90
6672;DHT22;3372;48.690;12.362;2023-03-30T17:55:47;12.10;99.90
6672;DHT22;3372;48.690;12.362;2023-03-30T17:58:20;12.10;99.90
6672;DHT22;3372;48.690;12.362;2023-03-30T18:00:47;12.10;99.90
6672;DHT22;3372;48.690;12.362;2023-03-30T18:03:14;12.10;99.90
6672;DHT22;3372;48.690;12.362;2023-03-30T18:05:40;12.00;99.90
6672;DHT22;3372;48.690;12.362;2023-03-30T18:08:12;12.00;99.90